sensor_id;sensor_type;location;lat;lon;timestamp;pressure;altitude;pressure_sealevel;temperature;humidity
24610;BME280;12758;47.890;11.694;2023-04-05T00:00:14;94137.72;;;1.88;88.53
24610;BME280;12758;47.890;11.694;2023-04-05T00:02:41;94143.59;;;1.84;88.38
24610;BME280;12758;47.890;11.694;2023-04-05T00:05:08;94131.31;;;1.83;88.26
24610;BME280;12758;47.890;11.694;2023-04-05T00:07:34;94129.69;;;1.82;88.67
24610;BME280;12758;47.890;11.694;2023-04-05T00:10:03;94130.75;;;1.81;89.66
24610;BME280;12758;47.890;11.694;2023-04-05T00:12:29;94125.41;;;1.81;89.12
24610;BME280;12758;47.890;11.694;2023-04-05T00:14:56;94128.63;;;1.78;89.81
24610;BME280;12758;47.890;11.694;2023-04-05T00:17:22;94135.56;;;1.79;88.61
24610;BME280;12758;47.890;11.694;2023-04-05T00:19:51;94125.38;;;1.76;88.87
24610;BME280;12758;47.890;11.694;2023-04-05T00:22:21;94122.19;;;1.74;89.05
24610;BME280;12758;47.890;11.694;2023-04-05T00:24:53;94125.91;;;1.73;89.20
24610;BME280;12758;47.890;11.694;2023-04-05T00:27:19;94117.38;;;1.71;89.77
24610;BME280;12758;47.890;11.694;2023-04-05T00:29:48;94119.50;;;1.69;89.85
24610;BME280;12758;47.890;11.694;2023-04-05T00:32:14;94111.75;;;1.68;89.25
24610;BME280;12758;47.890;11.694;2023-04-05T00:34:44;94112.03;;;1.71;89.59
24610;BME280;12758;47.890;11.694;2023-04-05T00:37:10;94113.63;;;1.67;89.44
24610;BME280;12758;47.890;11.694;2023-04-05T00:39:36;94116.84;;;1.64;90.13
24610;BME280;12758;47.890;11.694;2023-04-05T00:42:03;94111.50;;;1.64;89.26
24610;BME280;12758;47.890;11.694;2023-04-05T00:44:29;94107.97;;;1.63;89.00
24610;BME280;12758;47.890;11.694;2023-04-05T00:46:59;94108.25;;;1.62;89.75
24610;BME280;12758;47.890;11.694;2023-04-05T00:49:29;94103.44;;;1.59;89.64
24610;BME280;12758;47.890;11.694;2023-04-05T00:51:59;94107.19;;;1.58;89.86
24610;BME280;12758;47.890;11.694;2023-04-05T00:54:26;94105.06;;;1.55;90.07
24610;BME280;12758;47.890;11.694;2023-04-05T00:56:54;94104.50;;;1.53;90.63
24610;BME280;12758;47.890;11.694;2023-04-05T00:59:23;94095.41;;;1.54;90.16
24610;BME280;12758;47.890;11.694;2023-04-05T01:01:54;94094.88;;;1.52;90.12
24610;BME280;12758;47.890;11.694;2023-04-05T01:04:21;94099.69;;;1.50;90.08
24610;BME280;12758;47.890;11.694;2023-04-05T01:07:03;94094.34;;;1.50;89.70
24610;BME280;12758;47.890;11.694;2023-04-05T01:09:40;94096.50;;;1.48;90.47
24610;BME280;12758;47.890;11.694;2023-04-05T01:12:16;94091.38;;;1.46;90.12
24610;BME280;12758;47.890;11.694;2023-04-05T01:14:45;94090.59;;;1.46;90.69
24610;BME280;12758;47.890;11.694;2023-04-05T01:17:11;94088.44;;;1.43;89.98
24610;BME280;12758;47.890;11.694;2023-04-05T01:19:40;94087.38;;;1.44;90.57
24610;BME280;12758;47.890;11.694;2023-04-05T01:22:31;94074.53;;;1.40;91.18
24610;BME280;12758;47.890;11.694;2023-04-05T01:25:15;94071.34;;;1.38;91.02
24610;BME280;12758;47.890;11.694;2023-04-05T01:28:02;94077.47;;;1.39;90.78
24610;BME280;12758;47.890;11.694;2023-04-05T01:30:36;94071.88;;;1.35;91.48
24610;BME280;12758;47.890;11.694;2023-04-05T01:33:09;94066.50;;;1.35;91.21
24610;BME280;12758;47.890;11.694;2023-04-05T01:35:42;94064.88;;;1.34;91.34
24610;BME280;12758;47.890;11.694;2023-04-05T01:38:11;94071.88;;;1.35;91.08
24610;BME280;12758;47.890;11.694;2023-04-05T01:40:41;94072.41;;;1.32;91.24
24610;BME280;12758;47.890;11.694;2023-04-05T01:43:12;94059.56;;;1.29;91.71
24610;BME280;12758;47.890;11.694;2023-04-05T01:45:39;94062.22;;;1.29;91.79
24610;BME280;12758;47.890;11.694;2023-04-05T01:48:05;94050.97;;;1.27;91.61
24610;BME280;12758;47.890;11.694;2023-04-05T01:50:34;94056.59;;;1.26;91.96
24610;BME280;12758;47.890;11.694;2023-04-05T01:53:03;94055.78;;;1.25;91.84
24610;BME280;12758;47.890;11.694;2023-04-05T01:55:29;94054.47;;;1.23;92.46
24610;BME280;12758;47.890;11.694;2023-04-05T01:57:56;94051.00;;;1.22;92.43
24610;BME280;12758;47.890;11.694;2023-04-05T02:00:25;94049.38;;;1.21;92.26
24610;BME280;12758;47.890;11.694;2023-04-05T02:02:55;94048.56;;;1.21;92.40
24610;BME280;12758;47.890;11.694;2023-04-05T02:05:21;94046.16;;;1.19;92.55
24610;BME280;12758;47.890;11.694;2023-04-05T02:07:50;94040.81;;;1.19;91.87
24610;BME280;12758;47.890;11.694;2023-04-05T02:10:17;94037.59;;;1.17;92.66
24610;BME280;12758;47.890;11.694;2023-04-05T02:12:46;94025.84;;;1.13;92.83
24610;BME280;12758;47.890;11.694;2023-04-05T02:15:12;94032.00;;;1.13;92.33
24610;BME280;12758;47.890;11.694;2023-04-05T02:17:41;94025.84;;;1.13;92.83
24610;BME280;12758;47.890;11.694;2023-04-05T02:20:11;94030.13;;;1.14;93.27
24610;BME280;12758;47.890;11.694;2023-04-05T02:22:42;94024.22;;;1.12;92.71
24610;BME280;12758;47.890;11.694;2023-04-05T02:25:10;94026.34;;;1.05;92.49
24610;BME280;12758;47.890;11.694;2023-04-05T02:27:39;94022.34;;;1.07;93.17
24610;BME280;12758;47.890;11.694;2023-04-05T02:30:06;94021.56;;;1.07;93.12
24610;BME280;12758;47.890;11.694;2023-04-05T02:32:35;94016.75;;;1.04;93.40
24610;BME280;12758;47.890;11.694;2023-04-05T02:35:05;94022.59;;;1.01;93.31
24610;BME280;12758;47.890;11.694;2023-04-05T02:37:34;94016.72;;;0.99;93.49
24610;BME280;12758;47.890;11.694;2023-04-05T02:40:01;94027.94;;;1.01;93.03
24610;BME280;12758;47.890;11.694;2023-04-05T02:42:29;94016.19;;;0.97;93.60
24610;BME280;12758;47.890;11.694;2023-04-05T02:44:58;94021.53;;;0.97;93.80
24610;BME280;12758;47.890;11.694;2023-04-05T02:47:24;94019.91;;;0.96;93.96
24610;BME280;12758;47.890;11.694;2023-04-05T02:49:50;94012.19;;;0.94;93.29
24610;BME280;12758;47.890;11.694;2023-04-05T02:52:19;94009.50;;;0.94;93.28
24610;BME280;12758;47.890;11.694;2023-04-05T02:54:49;94006.03;;;0.93;94.06
24610;BME280;12758;47.890;11.694;2023-04-05T02:57:15;94003.59;;;0.92;93.68
24610;BME280;12758;47.890;11.694;2023-04-05T02:59:41;94007.59;;;0.89;93.82
24610;BME280;12758;47.890;11.694;2023-04-05T03:02:11;93995.88;;;0.90;93.64
24610;BME280;12758;47.890;11.694;2023-04-05T03:04:39;93998.00;;;0.88;94.18
24610;BME280;12758;47.890;11.694;2023-04-05T03:07:06;94003.34;;;0.88;93.85
24610;BME280;12758;47.890;11.694;2023-04-05T03:09:35;94000.13;;;0.86;94.16
24610;BME280;12758;47.890;11.694;2023-04-05T03:12:04;93998.53;;;0.85;94.23
24610;BME280;12758;47.890;11.694;2023-04-05T03:14:33;93996.13;;;0.84;94.27
24610;BME280;12758;47.890;11.694;2023-04-05T03:16:59;93997.44;;;0.81;94.94
24610;BME280;12758;47.890;11.694;2023-04-05T03:19:28;93997.44;;;0.81;94.87
24610;BME280;12758;47.890;11.694;2023-04-05T03:21:54;93995.81;;;0.80;95.29
24610;BME280;12758;47.890;11.694;2023-04-05T03:24:25;93997.97;;;0.78;94.97
24610;BME280;12758;47.890;11.694;2023-04-05T03:26:51;93988.38;;;0.77;94.30
24610;BME280;12758;47.890;11.694;2023-04-05T03:29:21;93995.56;;;0.77;94.89
24610;BME280;12758;47.890;11.694;2023-04-05T03:31:48;93996.06;;;0.74;95.35
24610;BME280;12758;47.890;11.694;2023-04-05T03:34:17;93984.59;;;0.73;95.23
24610;BME280;12758;47.890;11.694;2023-04-05T03:36:46;93979.53;;;0.72;95.49
24610;BME280;12758;47.890;11.694;2023-04-05T03:39:14;93989.34;;;0.45;92.62
24610;BME280;12758;47.890;11.694;2023-04-05T03:41:40;93987.25;;;0.63;95.79
24610;BME280;12758;47.890;11.694;2023-04-05T03:44:06;93986.72;;;0.66;96.23
24610;BME280;12758;47.890;11.694;2023-04-05T03:46:36;93997.94;;;0.63;95.13
24610;BME280;12758;47.890;11.694;2023-04-05T03:49:02;93988.31;;;0.62;95.72
24610;BME280;12758;47.890;11.694;2023-04-05T03:51:28;93995.25;;;0.63;95.77
24610;BME280;12758;47.890;11.694;2023-04-05T03:53:55;93992.06;;;0.66;95.90
24610;BME280;12758;47.890;11.694;2023-04-05T03:56:24;93989.38;;;0.66;95.57
24610;BME280;12758;47.890;11.694;2023-04-05T03:58:50;93994.72;;;0.66;95.70
24610;BME280;12758;47.890;11.694;2023-04-05T04:01:19;93994.19;;;0.64;95.03
24610;BME280;12758;47.890;11.694;2023-04-05T04:03:46;93990.44;;;0.60;95.47
24610;BME280;12758;47.890;11.694;2023-04-05T04:06:15;93991.50;;;0.59;95.89
24610;BME280;12758;47.890;11.694;2023-04-05T04:08:42;93989.63;;;0.59;95.71
24610;BME280;12758;47.890;11.694;2023-04-05T04:11:11;93986.13;;;0.54;95.62
24610;BME280;12758;47.890;11.694;2023-04-05T04:13:37;93986.66;;;0.51;95.24
24610;BME280;12758;47.890;11.694;2023-04-05T04:16:06;93989.88;;;0.53;95.88
24610;BME280;12758;47.890;11.694;2023-04-05T04:18:35;93982.94;;;0.52;96.12
24610;BME280;12758;47.890;11.694;2023-04-05T04:21:05;93978.41;;;0.52;95.86
24610;BME280;12758;47.890;11.694;2023-04-05T04:23:31;93982.41;;;0.50;95.41
24610;BME280;12758;47.890;11.694;2023-04-05T04:26:00;93987.75;;;0.50;95.89
24610;BME280;12758;47.890;11.694;2023-04-05T04:28:29;93981.06;;;0.47;96.01
24610;BME280;12758;47.890;11.694;2023-04-05T04:30:59;93982.38;;;0.44;96.19
24610;BME280;12758;47.890;11.694;2023-04-05T04:33:29;93975.41;;;0.38;94.57
24610;BME280;12758;47.890;11.694;2023-04-05T04:35:58;93974.34;;;0.39;96.18
24610;BME280;12758;47.890;11.694;2023-04-05T04:38:30;93977.56;;;0.41;96.37
24610;BME280;12758;47.890;11.694;2023-04-05T04:40:59;93979.41;;;0.41;95.92
24610;BME280;12758;47.890;11.694;2023-04-05T04:43:27;93978.59;;;0.35;95.48
24610;BME280;12758;47.890;11.694;2023-04-05T04:45:53;93974.31;;;0.34;95.88
24610;BME280;12758;47.890;11.694;2023-04-05T04:48:22;93974.31;;;0.29;95.17
24610;BME280;12758;47.890;11.694;2023-04-05T04:50:48;93974.31;;;0.34;95.92
24610;BME280;12758;47.890;11.694;2023-04-05T04:53:14;93974.88;;;0.36;96.25
24610;BME280;12758;47.890;11.694;2023-04-05T04:55:46;93980.22;;;0.36;96.33
24610;BME280;12758;47.890;11.694;2023-04-05T04:58:17;93977.78;;;0.35;95.02
24610;BME280;12758;47.890;11.694;2023-04-05T05:00:43;93992.22;;;0.34;96.12
24610;BME280;12758;47.890;11.694;2023-04-05T05:03:10;93987.13;;;0.27;95.64
24610;BME280;12758;47.890;11.694;2023-04-05T05:05:42;93991.31;;;0.13;94.75
24610;BME280;12758;47.890;11.694;2023-04-05T05:08:11;93986.50;;;0.10;96.99
24610;BME280;12758;47.890;11.694;2023-04-05T05:10:37;93984.94;;;0.19;96.60
24610;BME280;12758;47.890;11.694;2023-04-05T05:13:07;93995.59;;;0.19;97.19
24610;BME280;12758;47.890;11.694;2023-04-05T05:15:38;93984.94;;;0.19;97.07
24610;BME280;12758;47.890;11.694;2023-04-05T05:18:07;93982.56;;;0.22;97.81
24610;BME280;12758;47.890;11.694;2023-04-05T05:20:33;93980.69;;;0.23;97.21
24610;BME280;12758;47.890;11.694;2023-04-05T05:23:02;93981.78;;;0.27;97.18
24610;BME280;12758;47.890;11.694;2023-04-05T05:25:29;93984.69;;;0.26;96.50
24610;BME280;12758;47.890;11.694;2023-04-05T05:27:59;93983.38;;;0.28;97.21
24610;BME280;12758;47.890;11.694;2023-04-05T05:30:26;93990.81;;;0.21;97.13
24610;BME280;12758;47.890;11.694;2023-04-05T05:32:56;93982.03;;;0.26;97.44
24610;BME280;12758;47.890;11.694;2023-04-05T05:35:22;93980.72;;;0.28;97.20
24610;BME280;12758;47.890;11.694;2023-04-05T05:37:51;93983.38;;;0.28;97.28
24610;BME280;12758;47.890;11.694;2023-04-05T05:40:17;93990.78;;;0.16;96.04
24610;BME280;12758;47.890;11.694;2023-04-05T05:42:46;93985.53;;;0.26;97.84
24610;BME280;12758;47.890;11.694;2023-04-05T05:45:12;93984.97;;;0.24;97.29
24610;BME280;12758;47.890;11.694;2023-04-05T05:47:42;93988.19;;;0.31;97.13
24610;BME280;12758;47.890;11.694;2023-04-05T05:50:08;93996.19;;;0.31;97.54
24610;BME280;12758;47.890;11.694;2023-04-05T05:52:38;93992.72;;;0.31;97.58
24610;BME280;12758;47.890;11.694;2023-04-05T05:55:04;93998.88;;;0.31;97.89
24610;BME280;12758;47.890;11.694;2023-04-05T05:57:31;94009.00;;;0.24;98.17
24610;BME280;12758;47.890;11.694;2023-04-05T05:59:57;94007.91;;;0.25;99.58
24610;BME280;12758;47.890;11.694;2023-04-05T06:02:26;94012.72;;;0.23;100.00
24610;BME280;12758;47.890;11.694;2023-04-05T06:04:53;94011.69;;;0.29;100.00
24610;BME280;12758;47.890;11.694;2023-04-05T06:07:22;94001.25;;;0.22;100.00
24610;BME280;12758;47.890;11.694;2023-04-05T06:09:51;94005.47;;;0.18;100.00
24610;BME280;12758;47.890;11.694;2023-04-05T06:12:20;94017.00;;;0.24;100.00
24610;BME280;12758;47.890;11.694;2023-04-05T06:14:46;94007.94;;;0.30;100.00
24610;BME280;12758;47.890;11.694;2023-04-05T06:17:15;94005.00;;;0.32;100.00
24610;BME280;12758;47.890;11.694;2023-04-05T06:19:43;94004.25;;;0.36;100.00
24610;BME280;12758;47.890;11.694;2023-04-05T06:22:10;94007.44;;;0.33;100.00
24610;BME280;12758;47.890;11.694;2023-04-05T06:24:39;94012.78;;;0.33;100.00
24610;BME280;12758;47.890;11.694;2023-04-05T06:27:05;94013.25;;;0.20;100.00
24610;BME280;12758;47.890;11.694;2023-04-05T06:29:34;94015.09;;;0.14;100.00
24610;BME280;12758;47.890;11.694;2023-04-05T06:32:00;94011.69;;;0.29;100.00
24610;BME280;12758;47.890;11.694;2023-04-05T06:34:26;94013.25;;;0.20;100.00
24610;BME280;12758;47.890;11.694;2023-04-05T06:36:52;94008.78;;;0.41;100.00
24610;BME280;12758;47.890;11.694;2023-04-05T06:39:23;94005.94;;;0.63;100.00
24610;BME280;12758;47.890;11.694;2023-04-05T06:41:49;94005.44;;;0.71;100.00
24610;BME280;12758;47.890;11.694;2023-04-05T06:44:18;94005.69;;;0.69;100.00
24610;BME280;12758;47.890;11.694;2023-04-05T06:46:44;94008.13;;;0.86;100.00
24610;BME280;12758;47.890;11.694;2023-04-05T06:49:13;94004.97;;;1.00;99.57
24610;BME280;12758;47.890;11.694;2023-04-05T06:51:40;94002.25;;;0.89;99.59
24610;BME280;12758;47.890;11.694;2023-04-05T06:54:08;94006.31;;;0.97;99.71
24610;BME280;12758;47.890;11.694;2023-04-05T06:56:35;94003.91;;;1.06;98.56
24610;BME280;12758;47.890;11.694;2023-04-05T06:59:04;94005.00;;;1.10;98.61
24610;BME280;12758;47.890;11.694;2023-04-05T07:01:30;94008.75;;;1.19;98.50
24610;BME280;12758;47.890;11.694;2023-04-05T07:04:00;94003.94;;;1.16;97.61
24610;BME280;12758;47.890;11.694;2023-04-05T07:06:26;94002.84;;;1.27;96.97
24610;BME280;12758;47.890;11.694;2023-04-05T07:08:55;94007.28;;;0.70;100.00
24610;BME280;12758;47.890;11.694;2023-04-05T07:11:24;94005.28;;;0.35;100.00
24610;BME280;12758;47.890;11.694;2023-04-05T07:13:54;94003.81;;;0.65;100.00
24610;BME280;12758;47.890;11.694;2023-04-05T07:16:20;94007.53;;;0.64;100.00
24610;BME280;12758;47.890;11.694;2023-04-05T07:18:50;94004.16;;;1.04;100.00
24610;BME280;12758;47.890;11.694;2023-04-05T07:21:19;94003.38;;;1.14;100.00
24610;BME280;12758;47.890;11.694;2023-04-05T07:23:48;94000.19;;;1.37;99.52
24610;BME280;12758;47.890;11.694;2023-04-05T07:26:14;93997.53;;;1.48;98.21
24610;BME280;12758;47.890;11.694;2023-04-05T07:28:43;93998.56;;;1.57;96.10
24610;BME280;12758;47.890;11.694;2023-04-05T07:31:13;94000.19;;;1.78;94.16
24610;BME280;12758;47.890;11.694;2023-04-05T07:33:39;94000.19;;;1.68;94.07
24610;BME280;12758;47.890;11.694;2023-04-05T07:36:06;93999.66;;;1.71;94.21
24610;BME280;12758;47.890;11.694;2023-04-05T07:38:35;93999.63;;;1.76;92.83
24610;BME280;12758;47.890;11.694;2023-04-05T07:41:04;94001.25;;;1.62;93.34
24610;BME280;12758;47.890;11.694;2023-04-05T07:43:30;94003.38;;;1.91;91.99
24610;BME280;12758;47.890;11.694;2023-04-05T07:46:00;94005.00;;;1.81;91.31
24610;BME280;12758;47.890;11.694;2023-04-05T07:48:27;94003.38;;;1.91;90.40
24610;BME280;12758;47.890;11.694;2023-04-05T07:50:56;94013.28;;;1.70;91.29
24610;BME280;12758;47.890;11.694;2023-04-05T07:53:27;94014.63;;;1.57;92.80
24610;BME280;12758;47.890;11.694;2023-04-05T07:55:56;94014.13;;;1.70;93.42
24610;BME280;12758;47.890;11.694;2023-04-05T07:58:23;94009.81;;;1.69;92.94
24610;BME280;12758;47.890;11.694;2023-04-05T08:00:53;94013.56;;;1.68;93.33
24610;BME280;12758;47.890;11.694;2023-04-05T08:03:23;94012.78;;;1.68;92.77
24610;BME280;12758;47.890;11.694;2023-04-05T08:05:53;94014.13;;;1.55;93.84
24610;BME280;12758;47.890;11.694;2023-04-05T08:08:19;94024.78;;;1.39;93.90
24610;BME280;12758;47.890;11.694;2023-04-05T08:10:49;94019.44;;;1.39;95.05
24610;BME280;12758;47.890;11.694;2023-04-05T08:13:15;94022.09;;;1.34;96.34
24610;BME280;12758;47.890;11.694;2023-04-05T08:15:43;94023.19;;;1.49;95.54
24610;BME280;12758;47.890;11.694;2023-04-05T08:18:09;94018.63;;;1.24;98.55
24610;BME280;12758;47.890;11.694;2023-04-05T08:20:39;94022.66;;;1.36;97.17
24610;BME280;12758;47.890;11.694;2023-04-05T08:23:08;94026.94;;;1.37;96.75
24610;BME280;12758;47.890;11.694;2023-04-05T08:25:37;94018.91;;;1.22;95.83
24610;BME280;12758;47.890;11.694;2023-04-05T08:28:03;94023.69;;;1.25;96.26
24610;BME280;12758;47.890;11.694;2023-04-05T08:30:33;94021.84;;;1.31;96.96
24610;BME280;12758;47.890;11.694;2023-04-05T08:33:02;94013.00;;;1.25;96.91
24610;BME280;12758;47.890;11.694;2023-04-05T08:35:31;94017.81;;;1.18;95.51
24610;BME280;12758;47.890;11.694;2023-04-05T08:37:57;94018.09;;;1.22;97.03
24610;BME280;12758;47.890;11.694;2023-04-05T08:40:38;94011.66;;;1.07;95.83
24610;BME280;12758;47.890;11.694;2023-04-05T08:43:10;94020.50;;;1.13;98.06
24610;BME280;12758;47.890;11.694;2023-04-05T08:45:43;94029.03;;;1.10;98.22
24610;BME280;12758;47.890;11.694;2023-04-05T08:48:11;94030.09;;;1.09;97.30
24610;BME280;12758;47.890;11.694;2023-04-05T08:50:40;94020.47;;;1.03;98.66
24610;BME280;12758;47.890;11.694;2023-04-05T08:53:09;94023.69;;;1.05;96.84
24610;BME280;12758;47.890;11.694;2023-04-05T08:55:36;94026.38;;;1.10;96.00
24610;BME280;12758;47.890;11.694;2023-04-05T08:58:09;94017.78;;;0.98;95.84
24610;BME280;12758;47.890;11.694;2023-04-05T09:00:37;94029.31;;;1.13;96.17
24610;BME280;12758;47.890;11.694;2023-04-05T09:03:06;94030.66;;;1.26;93.71
24610;BME280;12758;47.890;11.694;2023-04-05T09:05:36;94030.66;;;1.16;94.61
24610;BME280;12758;47.890;11.694;2023-04-05T09:08:05;94033.34;;;1.31;93.87
24610;BME280;12758;47.890;11.694;2023-04-05T09:10:31;94024.50;;;1.31;94.31
24610;BME280;12758;47.890;11.694;2023-04-05T09:13:01;94019.97;;;1.31;93.64
24610;BME280;12758;47.890;11.694;2023-04-05T09:15:28;94021.56;;;1.27;91.83
24610;BME280;12758;47.890;11.694;2023-04-05T09:17:57;94037.09;;;1.30;92.55
24610;BME280;12758;47.890;11.694;2023-04-05T09:20:23;94031.47;;;1.37;91.50
24610;BME280;12758;47.890;11.694;2023-04-05T09:22:53;94025.88;;;1.49;91.12
24610;BME280;12758;47.890;11.694;2023-04-05T09:25:34;94031.25;;;1.64;89.53
24610;BME280;12758;47.890;11.694;2023-04-05T09:28:04;94027.19;;;1.56;86.21
24610;BME280;12758;47.890;11.694;2023-04-05T09:30:31;94021.88;;;1.61;85.43
24610;BME280;12758;47.890;11.694;2023-04-05T09:33:00;94021.06;;;1.61;86.40
24610;BME280;12758;47.890;11.694;2023-04-05T09:35:27;94017.84;;;1.69;85.00
24610;BME280;12758;47.890;11.694;2023-04-05T09:37:57;94026.94;;;1.53;81.68
24610;BME280;12758;47.890;11.694;2023-04-05T09:40:24;94024.25;;;1.63;84.09
24610;BME280;12758;47.890;11.694;2023-04-05T09:43:08;94021.56;;;1.89;81.28
24610;BME280;12758;47.890;11.694;2023-04-05T09:45:37;94022.66;;;1.93;80.71
24610;BME280;12758;47.890;11.694;2023-04-05T09:48:07;94014.06;;;2.01;80.87
24610;BME280;12758;47.890;11.694;2023-04-05T09:50:34;94015.13;;;2.05;81.93
24610;BME280;12758;47.890;11.694;2023-04-05T09:53:07;94017.78;;;2.15;81.59
24610;BME280;12758;47.890;11.694;2023-04-05T09:55:34;94017.25;;;2.13;80.81
24610;BME280;12758;47.890;11.694;2023-04-05T09:58:03;94019.97;;;1.88;79.69
24610;BME280;12758;47.890;11.694;2023-04-05T10:00:30;94018.91;;;1.83;76.81
24610;BME280;12758;47.890;11.694;2023-04-05T10:02:59;94020.78;;;1.88;78.51
24610;BME280;12758;47.890;11.694;2023-04-05T10:05:26;94022.59;;;2.13;79.77
24610;BME280;12758;47.890;11.694;2023-04-05T10:07:56;94011.34;;;2.16;79.87
24610;BME280;12758;47.890;11.694;2023-04-05T10:10:22;94006.78;;;2.27;74.72
24610;BME280;12758;47.890;11.694;2023-04-05T10:12:52;94004.59;;;2.39;78.73
24610;BME280;12758;47.890;11.694;2023-04-05T10:15:21;94009.09;;;2.54;78.61
24610;BME280;12758;47.890;11.694;2023-04-05T10:17:54;94010.69;;;2.55;78.66
24610;BME280;12758;47.890;11.694;2023-04-05T10:20:25;94001.88;;;2.49;78.50
24610;BME280;12758;47.890;11.694;2023-04-05T10:22:59;93997.34;;;2.45;73.62
24610;BME280;12758;47.890;11.694;2023-04-05T10:25:35;93999.94;;;2.70;77.79
24610;BME280;12758;47.890;11.694;2023-04-05T10:28:09;93999.41;;;2.63;75.67
24610;BME280;12758;47.890;11.694;2023-04-05T10:30:37;94003.44;;;2.61;76.80
24610;BME280;12758;47.890;11.694;2023-04-05T10:33:12;94011.25;;;2.57;78.60
24610;BME280;12758;47.890;11.694;2023-04-05T10:35:51;93999.03;;;2.25;75.56
24610;BME280;12758;47.890;11.694;2023-04-05T10:38:24;93994.16;;;2.38;80.74
24610;BME280;12758;47.890;11.694;2023-04-05T10:40:53;94003.25;;;2.42;81.28
24610;BME280;12758;47.890;11.694;2023-04-05T10:43:24;93997.38;;;2.35;77.38
24610;BME280;12758;47.890;11.694;2023-04-05T10:45:53;93990.91;;;2.41;78.22
24610;BME280;12758;47.890;11.694;2023-04-05T10:48:35;93997.09;;;2.41;74.26
24610;BME280;12758;47.890;11.694;2023-04-05T10:51:02;93989.31;;;2.40;76.28
24610;BME280;12758;47.890;11.694;2023-04-05T10:53:31;93985.25;;;2.58;75.00
24610;BME280;12758;47.890;11.694;2023-04-05T10:56:01;93991.34;;;2.63;75.41
24610;BME280;12758;47.890;11.694;2023-04-05T10:58:28;93987.56;;;2.79;74.44
24610;BME280;12758;47.890;11.694;2023-04-05T11:00:58;93983.19;;;2.94;77.01
24610;BME280;12758;47.890;11.694;2023-04-05T11:03:44;93981.66;;;2.77;73.93
24610;BME280;12758;47.890;11.694;2023-04-05T11:06:18;93982.75;;;2.76;71.71
24610;BME280;12758;47.890;11.694;2023-04-05T11:08:45;93990.75;;;2.82;70.80
24610;BME280;12758;47.890;11.694;2023-04-05T11:11:15;93978.78;;;3.08;75.42
24610;BME280;12758;47.890;11.694;2023-04-05T11:13:48;93970.00;;;3.02;71.03
24610;BME280;12758;47.890;11.694;2023-04-05T11:16:18;93963.84;;;3.02;72.60
24610;BME280;12758;47.890;11.694;2023-04-05T11:18:45;93975.53;;;3.16;70.86
24610;BME280;12758;47.890;11.694;2023-04-05T11:21:22;93971.34;;;3.00;68.15
24610;BME280;12758;47.890;11.694;2023-04-05T11:23:59;93969.13;;;3.12;69.74
24610;BME280;12758;47.890;11.694;2023-04-05T11:26:30;93960.78;;;3.14;68.97
24610;BME280;12758;47.890;11.694;2023-04-05T11:28:57;93958.78;;;2.95;65.86
24610;BME280;12758;47.890;11.694;2023-04-05T11:31:25;93959.59;;;2.96;66.63
24610;BME280;12758;47.890;11.694;2023-04-05T11:33:56;93959.28;;;3.02;65.71
24610;BME280;12758;47.890;11.694;2023-04-05T11:36:32;93962.75;;;3.03;68.68
24610;BME280;12758;47.890;11.694;2023-04-05T11:39:23;93959.91;;;3.23;67.00
24610;BME280;12758;47.890;11.694;2023-04-05T11:41:54;93962.47;;;3.04;61.57
24610;BME280;12758;47.890;11.694;2023-04-05T11:44:21;93959.44;;;3.16;66.62
24610;BME280;12758;47.890;11.694;2023-04-05T11:46:50;93958.88;;;3.19;70.35
24610;BME280;12758;47.890;11.694;2023-04-05T11:49:20;93954.00;;;3.26;64.30
24610;BME280;12758;47.890;11.694;2023-04-05T11:51:51;93958.91;;;3.54;69.03
24610;BME280;12758;47.890;11.694;2023-04-05T11:54:28;93956.47;;;3.52;64.61
24610;BME280;12758;47.890;11.694;2023-04-05T11:56:57;93955.72;;;3.76;68.33
24610;BME280;12758;47.890;11.694;2023-04-05T11:59:28;93945.66;;;3.62;68.76
24610;BME280;12758;47.890;11.694;2023-04-05T12:01:58;93945.09;;;3.65;65.91
24610;BME280;12758;47.890;11.694;2023-04-05T12:04:25;93947.22;;;3.68;66.67
24610;BME280;12758;47.890;11.694;2023-04-05T12:07:15;93948.41;;;3.57;66.52
24610;BME280;12758;47.890;11.694;2023-04-05T12:10:04;93948.06;;;3.64;69.00
24610;BME280;12758;47.890;11.694;2023-04-05T12:12:37;93952.69;;;3.58;67.62
24610;BME280;12758;47.890;11.694;2023-04-05T12:15:04;93955.22;;;3.44;66.02
24610;BME280;12758;47.890;11.694;2023-04-05T12:17:43;93944.84;;;3.62;70.21
24610;BME280;12758;47.890;11.694;2023-04-05T12:20:11;93943.97;;;3.71;67.59
24610;BME280;12758;47.890;11.694;2023-04-05T12:22:44;93949.72;;;3.60;67.07
24610;BME280;12758;47.890;11.694;2023-04-05T12:25:10;93944.53;;;3.68;65.50
24610;BME280;12758;47.890;11.694;2023-04-05T12:27:41;93940.34;;;3.86;67.16
24610;BME280;12758;47.890;11.694;2023-04-05T12:30:11;93942.84;;;3.78;67.52
24610;BME280;12758;47.890;11.694;2023-04-05T12:32:43;93939.91;;;3.74;62.53
24610;BME280;12758;47.890;11.694;2023-04-05T12:35:11;93939.44;;;3.96;67.11
24610;BME280;12758;47.890;11.694;2023-04-05T12:37:40;93939.53;;;3.86;64.83
24610;BME280;12758;47.890;11.694;2023-04-05T12:40:08;93941.59;;;3.94;62.85
24610;BME280;12758;47.890;11.694;2023-04-05T12:42:38;93934.09;;;3.91;65.94
24610;BME280;12758;47.890;11.694;2023-04-05T12:45:05;93930.50;;;3.77;63.79
24610;BME280;12758;47.890;11.694;2023-04-05T12:47:47;93934.22;;;3.81;65.95
24610;BME280;12758;47.890;11.694;2023-04-05T12:50:15;93936.91;;;3.81;64.18
24610;BME280;12758;47.890;11.694;2023-04-05T12:52:52;93936.66;;;3.77;62.72
24610;BME280;12758;47.890;11.694;2023-04-05T12:55:18;93925.03;;;3.87;59.99
24610;BME280;12758;47.890;11.694;2023-04-05T12:57:49;93924.09;;;3.72;61.97
24610;BME280;12758;47.890;11.694;2023-04-05T13:00:17;93921.34;;;3.78;61.89
24610;BME280;12758;47.890;11.694;2023-04-05T13:02:49;93923.75;;;4.51;64.28
24610;BME280;12758;47.890;11.694;2023-04-05T13:05:20;93925.34;;;4.52;57.93
24610;BME280;12758;47.890;11.694;2023-04-05T13:07:49;93915.88;;;4.36;58.12
24610;BME280;12758;47.890;11.694;2023-04-05T13:10:16;93920.31;;;4.70;57.71